sensor_id;sensor_type;location;lat;lon;timestamp;pressure;altitude;pressure_sealevel;temperature;humidity
57859;BME280;49153;45.568;11.894;2022-09-09T00:04:40;101013.00;;;21.49;82.81
57859;BME280;49153;45.568;11.894;2022-09-09T00:09:51;101000.78;;;21.39;83.09
57859;BME280;49153;45.568;11.894;2022-09-09T00:15:19;101000.41;;;21.42;83.73
57859;BME280;49153;45.568;11.894;2022-09-09T00:18:01;101013.66;;;21.52;83.83
57859;BME280;49153;45.568;11.894;2022-09-09T00:23:14;101003.97;;;21.34;83.38
57859;BME280;49153;45.568;11.894;2022-09-09T00:26:01;101029.78;;;21.52;83.55
57859;BME280;49153;45.568;11.894;2022-09-09T00:28:29;101031.94;;;21.48;83.68
57859;BME280;49153;45.568;11.894;2022-09-09T00:31:04;101028.09;;;21.51;83.22
57859;BME280;49153;45.568;11.894;2022-09-09T00:33:33;101027.59;;;21.47;83.06
57859;BME280;49153;45.568;11.894;2022-09-09T00:36:00;101028.63;;;21.38;83.08
57859;BME280;49153;45.568;11.894;2022-09-09T00:41:20;101020.09;;;21.34;83.43
57859;BME280;49153;45.568;11.894;2022-09-09T00:44:00;101015.03;;;21.31;83.65
57859;BME280;49153;45.568;11.894;2022-09-09T00:52:23;101027.47;;;21.40;83.69
57859;BME280;49153;45.568;11.894;2022-09-09T00:54:57;101032.16;;;21.38;83.26
57859;BME280;49153;45.568;11.894;2022-09-09T00:57:28;101013.72;;;21.27;83.22
57859;BME280;49153;45.568;11.894;2022-09-09T01:00:20;101019.09;;;21.27;83.25
57859;BME280;49153;45.568;11.894;2022-09-09T01:11:52;101043.59;;;21.24;83.82
57859;BME280;49153;45.568;11.894;2022-09-09T01:14:31;101034.22;;;21.20;83.55
57859;BME280;49153;45.568;11.894;2022-09-09T01:17:20;101027.81;;;21.13;83.66
57859;BME280;49153;45.568;11.894;2022-09-09T01:22:44;101021.78;;;21.11;83.70
57859;BME280;49153;45.568;11.894;2022-09-09T01:25:26;101028.50;;;21.07;83.43
57859;BME280;49153;45.568;11.894;2022-09-09T01:27:59;101027.00;;;20.96;84.48
57859;BME280;49153;45.568;11.894;2022-09-09T01:30:26;101027.66;;;20.90;84.30
57859;BME280;49153;45.568;11.894;2022-09-09T01:32:55;101014.09;;;20.84;84.54
57859;BME280;49153;45.568;11.894;2022-09-09T01:38:10;101013.25;;;20.75;85.22
57859;BME280;49153;45.568;11.894;2022-09-09T01:40:35;101011.09;;;20.71;85.35
57859;BME280;49153;45.568;11.894;2022-09-09T01:43:02;101009.41;;;20.70;85.63
57859;BME280;49153;45.568;11.894;2022-09-09T01:45:28;100982.09;;;20.50;86.25
57859;BME280;49153;45.568;11.894;2022-09-09T01:47:54;101001.38;;;20.61;86.07
57859;BME280;49153;45.568;11.894;2022-09-09T01:50:20;100996.69;;;20.55;86.08
57859;BME280;49153;45.568;11.894;2022-09-09T01:52:49;101002.34;;;20.52;86.39
57859;BME280;49153;45.568;11.894;2022-09-09T01:55:15;101005.03;;;20.52;86.72
57859;BME280;49153;45.568;11.894;2022-09-09T01:57:52;101001.88;;;20.49;86.84
57859;BME280;49153;45.568;11.894;2022-09-09T02:00:21;101009.75;;;20.50;86.89
57859;BME280;49153;45.568;11.894;2022-09-09T02:03:07;101022.66;;;20.55;87.29
57859;BME280;49153;45.568;11.894;2022-09-09T02:05:43;101013.09;;;20.60;87.29
57859;BME280;49153;45.568;11.894;2022-09-09T02:08:42;101011.91;;;20.63;87.26
57859;BME280;49153;45.568;11.894;2022-09-09T02:11:14;101000.34;;;20.54;86.90
57859;BME280;49153;45.568;11.894;2022-09-09T02:13:40;100994.50;;;20.51;87.09
57859;BME280;49153;45.568;11.894;2022-09-09T02:16:15;101000.34;;;20.54;86.90
57859;BME280;49153;45.568;11.894;2022-09-09T02:19:11;100997.19;;;20.51;87.29
57859;BME280;49153;45.568;11.894;2022-09-09T02:21:39;101007.91;;;20.59;87.25
57859;BME280;49153;45.568;11.894;2022-09-09T02:24:08;101000.53;;;20.53;87.35
57859;BME280;49153;45.568;11.894;2022-09-09T02:26:39;100994.16;;;20.54;87.64
57859;BME280;49153;45.568;11.894;2022-09-09T02:29:09;101001.53;;;20.60;87.50
57859;BME280;49153;45.568;11.894;2022-09-09T02:31:36;100990.13;;;20.58;87.02
57859;BME280;49153;45.568;11.894;2022-09-09T02:34:03;100991.63;;;20.52;87.22
57859;BME280;49153;45.568;11.894;2022-09-09T02:36:32;100980.94;;;20.44;87.60
57859;BME280;49153;45.568;11.894;2022-09-09T02:38:59;100983.59;;;20.44;87.43
57859;BME280;49153;45.568;11.894;2022-09-09T02:41:37;100976.56;;;20.43;87.84
57859;BME280;49153;45.568;11.894;2022-09-09T02:44:09;100966.34;;;20.39;88.03
57859;BME280;49153;45.568;11.894;2022-09-09T02:46:36;100984.28;;;20.54;87.77
57859;BME280;49153;45.568;11.894;2022-09-09T02:49:18;100964.69;;;20.46;87.83
57859;BME280;49153;45.568;11.894;2022-09-09T02:54:32;100984.44;;;20.61;87.23
57859;BME280;49153;45.568;11.894;2022-09-09T02:57:06;100978.25;;;20.60;87.23
57859;BME280;49153;45.568;11.894;2022-09-09T02:59:34;100973.41;;;20.56;87.03
57859;BME280;49153;45.568;11.894;2022-09-09T03:02:00;100979.25;;;20.59;87.24
57859;BME280;49153;45.568;11.894;2022-09-09T03:04:26;100985.97;;;20.55;87.18
57859;BME280;49153;45.568;11.894;2022-09-09T03:06:51;100982.94;;;20.58;87.02
57859;BME280;49153;45.568;11.894;2022-09-09T03:09:17;100981.44;;;20.56;87.03
57859;BME280;49153;45.568;11.894;2022-09-09T03:11:42;100982.78;;;20.60;87.09
57859;BME280;49153;45.568;11.894;2022-09-09T03:14:07;100988.47;;;20.65;86.90
57859;BME280;49153;45.568;11.894;2022-09-09T03:16:33;100989.97;;;20.67;86.91
57859;BME280;49153;45.568;11.894;2022-09-09T03:19:00;100993.47;;;20.68;86.55
57859;BME280;49153;45.568;11.894;2022-09-09T03:21:26;100970.69;;;20.64;86.61
57859;BME280;49153;45.568;11.894;2022-09-09T03:23:51;100979.75;;;20.71;86.52
57859;BME280;49153;45.568;11.894;2022-09-09T03:26:17;100966.50;;;20.70;86.41
57859;BME280;49153;45.568;11.894;2022-09-09T03:28:42;100972.72;;;20.70;86.23
57859;BME280;49153;45.568;11.894;2022-09-09T03:31:08;100961.97;;;20.70;86.12
57859;BME280;49153;45.568;11.894;2022-09-09T03:33:36;100954.78;;;20.62;86.01
57859;BME280;49153;45.568;11.894;2022-09-09T03:36:02;100957.94;;;20.74;86.08
57859;BME280;49153;45.568;11.894;2022-09-09T03:38:27;100948.91;;;20.75;85.75
57859;BME280;49153;45.568;11.894;2022-09-09T03:40:55;100954.75;;;20.79;85.80
57859;BME280;49153;45.568;11.894;2022-09-09T03:43:23;100952.75;;;20.81;85.44
57859;BME280;49153;45.568;11.894;2022-09-09T03:45:49;100952.06;;;20.79;85.62
57859;BME280;49153;45.568;11.894;2022-09-09T03:48:16;100937.69;;;20.72;85.56
57859;BME280;49153;45.568;11.894;2022-09-09T03:50:46;100944.72;;;20.81;85.37
57859;BME280;49153;45.568;11.894;2022-09-09T03:53:11;100921.28;;;20.67;85.34
57859;BME280;49153;45.568;11.894;2022-09-09T03:55:37;100951.06;;;20.80;84.78
57859;BME280;49153;45.568;11.894;2022-09-09T03:58:02;100953.59;;;20.81;84.58
57859;BME280;49153;45.568;11.894;2022-09-09T04:00:28;100935.19;;;20.70;84.42
57859;BME280;49153;45.568;11.894;2022-09-09T04:02:54;100939.38;;;20.64;84.77
57859;BME280;49153;45.568;11.894;2022-09-09T04:05:21;100938.84;;;20.69;85.11
57859;BME280;49153;45.568;11.894;2022-09-09T04:07:46;100949.41;;;20.71;85.20
57859;BME280;49153;45.568;11.894;2022-09-09T04:10:12;100943.72;;;20.65;84.77
57859;BME280;49153;45.568;11.894;2022-09-09T04:12:38;100938.38;;;20.65;85.13
57859;BME280;49153;45.568;11.894;2022-09-09T04:15:04;100942.88;;;20.65;84.85
57859;BME280;49153;45.568;11.894;2022-09-09T04:17:29;100946.41;;;20.65;84.89
57859;BME280;49153;45.568;11.894;2022-09-09T04:19:55;100937.03;;;20.61;84.67
57859;BME280;49153;45.568;11.894;2022-09-09T04:22:22;100933.53;;;20.61;84.66
57859;BME280;49153;45.568;11.894;2022-09-09T04:24:47;100925.47;;;20.61;84.54
57859;BME280;49153;45.568;11.894;2022-09-09T04:27:13;100934.34;;;20.61;84.67
57859;BME280;49153;45.568;11.894;2022-09-09T04:29:38;100927.31;;;20.52;84.74
57859;BME280;49153;45.568;11.894;2022-09-09T04:32:03;100925.13;;;20.48;84.61
57859;BME280;49153;45.568;11.894;2022-09-09T04:34:30;100936.38;;;20.51;84.79
57859;BME280;49153;45.568;11.894;2022-09-09T04:36:56;100938.38;;;20.41;85.04
57859;BME280;49153;45.568;11.894;2022-09-09T04:39:22;100931.50;;;20.39;85.20
57859;BME280;49153;45.568;11.894;2022-09-09T04:41:47;100931.03;;;20.35;85.26
57859;BME280;49153;45.568;11.894;2022-09-09T04:44:13;100933.50;;;20.37;85.55
57859;BME280;49153;45.568;11.894;2022-09-09T04:46:39;100935.03;;;20.39;85.32
57859;BME280;49153;45.568;11.894;2022-09-09T04:49:06;100933.34;;;20.30;85.43
57859;BME280;49153;45.568;11.894;2022-09-09T04:51:31;100936.00;;;20.30;85.55
57859;BME280;49153;45.568;11.894;2022-09-09T04:53:57;100922.75;;;20.20;85.77
57859;BME280;49153;45.568;11.894;2022-09-09T04:56:22;100926.47;;;20.19;85.85
57859;BME280;49153;45.568;11.894;2022-09-09T04:58:48;100914.91;;;20.19;86.11
57859;BME280;49153;45.568;11.894;2022-09-09T05:01:16;100934.16;;;20.31;86.42
57859;BME280;49153;45.568;11.894;2022-09-09T05:03:45;100945.91;;;20.38;86.13
57859;BME280;49153;45.568;11.894;2022-09-09T05:06:13;100938.72;;;20.38;86.09
57859;BME280;49153;45.568;11.894;2022-09-09T05:08:41;100939.72;;;20.37;86.43
57859;BME280;49153;45.568;11.894;2022-09-09T05:13:43;100937.22;;;20.44;86.42
57859;BME280;49153;45.568;11.894;2022-09-09T05:16:09;100931.50;;;20.39;86.54
57859;BME280;49153;45.568;11.894;2022-09-09T05:18:39;100935.69;;;20.41;86.74
57859;BME280;49153;45.568;11.894;2022-09-09T05:21:05;100929.50;;;20.41;86.82
57859;BME280;49153;45.568;11.894;2022-09-09T05:23:32;100942.22;;;20.47;86.92
57859;BME280;49153;45.568;11.894;2022-09-09T05:25:58;100949.09;;;20.49;87.17
57859;BME280;49153;45.568;11.894;2022-09-09T05:28:24;100947.91;;;20.52;87.19
57859;BME280;49153;45.568;11.894;2022-09-09T05:31:02;100963.50;;;20.64;86.85
57859;BME280;49153;45.568;11.894;2022-09-09T05:33:33;100950.44;;;20.61;87.10
57859;BME280;49153;45.568;11.894;2022-09-09T05:36:01;100961.97;;;20.70;86.92
57859;BME280;49153;45.568;11.894;2022-09-09T05:38:28;100962.16;;;20.77;87.19
57859;BME280;49153;45.568;11.894;2022-09-09T05:40:54;100970.34;;;20.83;87.24
57859;BME280;49153;45.568;11.894;2022-09-09T05:43:22;100971.84;;;20.86;87.25
57859;BME280;49153;45.568;11.894;2022-09-09T05:45:48;100977.22;;;20.86;86.93
57859;BME280;49153;45.568;11.894;2022-09-09T05:48:14;100962.13;;;20.85;86.97
57859;BME280;49153;45.568;11.894;2022-09-09T05:50:41;100972.19;;;20.91;87.44
57859;BME280;49153;45.568;11.894;2022-09-09T05:53:08;100963.78;;;20.94;87.04
57859;BME280;49153;45.568;11.894;2022-09-09T05:55:34;100960.28;;;20.93;86.88
57859;BME280;49153;45.568;11.894;2022-09-09T05:57:59;100968.16;;;21.03;87.20
57859;BME280;49153;45.568;11.894;2022-09-09T06:00:25;100975.31;;;21.11;87.19
57859;BME280;49153;45.568;11.894;2022-09-09T06:02:52;100969.78;;;21.12;86.37
57859;BME280;49153;45.568;11.894;2022-09-09T06:05:18;100964.44;;;21.12;86.55
57859;BME280;49153;45.568;11.894;2022-09-09T06:07:43;100962.75;;;21.11;86.49
57859;BME280;49153;45.568;11.894;2022-09-09T06:10:10;100970.47;;;21.22;86.93
57859;BME280;49153;45.568;11.894;2022-09-09T06:12:38;100966.78;;;21.23;86.65
57859;BME280;49153;45.568;11.894;2022-09-09T06:15:04;100960.41;;;21.24;86.68
57859;BME280;49153;45.568;11.894;2022-09-09T06:17:30;100964.88;;;21.32;87.00
57859;BME280;49153;45.568;11.894;2022-09-09T06:19:55;100970.88;;;21.42;86.74
57859;BME280;49153;45.568;11.894;2022-09-09T06:22:21;100964.31;;;21.53;86.93
57859;BME280;49153;45.568;11.894;2022-09-09T06:24:46;100952.25;;;21.48;86.58
57859;BME280;49153;45.568;11.894;2022-09-09T06:27:12;100959.91;;;21.60;86.37
57859;BME280;49153;45.568;11.894;2022-09-09T06:29:38;100958.38;;;21.65;85.94
57859;BME280;49153;45.568;11.894;2022-09-09T06:32:04;100960.53;;;21.70;86.15
57859;BME280;49153;45.568;11.894;2022-09-09T06:34:29;100963.84;;;21.80;85.97
57859;BME280;49153;45.568;11.894;2022-09-09T06:36:55;100957.94;;;21.84;85.32
57859;BME280;49153;45.568;11.894;2022-09-09T06:39:22;100947.19;;;21.84;85.44
57859;BME280;49153;45.568;11.894;2022-09-09T06:41:48;100960.03;;;22.05;85.59
57859;BME280;49153;45.568;11.894;2022-09-09T06:44:15;100948.81;;;22.02;85.37
57859;BME280;49153;45.568;11.894;2022-09-09T06:46:41;100942.72;;;22.08;85.25
57859;BME280;49153;45.568;11.894;2022-09-09T06:49:08;100953.91;;;22.19;84.93
57859;BME280;49153;45.568;11.894;2022-09-09T06:51:35;100960.88;;;22.28;84.91
57859;BME280;49153;45.568;11.894;2022-09-09T06:54:03;100961.00;;;22.35;84.75
57859;BME280;49153;45.568;11.894;2022-09-09T06:56:36;100932.16;;;22.29;84.93
57859;BME280;49153;45.568;11.894;2022-09-09T06:59:04;100925.50;;;22.40;85.15
57859;BME280;49153;45.568;11.894;2022-09-09T07:01:35;100937.06;;;22.63;85.27
57859;BME280;49153;45.568;11.894;2022-09-09T07:04:01;100932.16;;;22.66;84.91
57859;BME280;49153;45.568;11.894;2022-09-09T07:06:31;100952.34;;;22.85;84.71
57859;BME280;49153;45.568;11.894;2022-09-09T07:08:58;100947.91;;;22.92;84.11
57859;BME280;49153;45.568;11.894;2022-09-09T07:11:27;100945.22;;;22.92;83.60
57859;BME280;49153;45.568;11.894;2022-09-09T07:13:53;100945.03;;;22.94;83.47
57859;BME280;49153;45.568;11.894;2022-09-09T07:16:20;100960.25;;;23.01;83.28
57859;BME280;49153;45.568;11.894;2022-09-09T07:18:47;100955.88;;;23.00;83.15
57859;BME280;49153;45.568;11.894;2022-09-09T07:21:14;100949.69;;;23.00;82.89
57859;BME280;49153;45.568;11.894;2022-09-09T07:23:40;100956.16;;;23.05;82.25
57859;BME280;49153;45.568;11.894;2022-09-09T07:26:10;100956.72;;;23.01;82.41
57859;BME280;49153;45.568;11.894;2022-09-09T07:28:37;100941.31;;;22.95;82.28
57859;BME280;49153;45.568;11.894;2022-09-09T07:31:03;100954.84;;;23.01;82.29
57859;BME280;49153;45.568;11.894;2022-09-09T07:33:31;100932.94;;;22.90;82.20
57859;BME280;49153;45.568;11.894;2022-09-09T07:36:19;100953.41;;;22.99;82.09
57859;BME280;49153;45.568;11.894;2022-09-09T07:38:54;100952.91;;;22.95;81.71
57859;BME280;49153;45.568;11.894;2022-09-09T07:41:24;100963.31;;;22.98;81.69
57859;BME280;49153;45.568;11.894;2022-09-09T07:43:50;100948.56;;;22.94;82.01
57859;BME280;49153;45.568;11.894;2022-09-09T07:46:18;100950.25;;;23.10;81.75
57859;BME280;49153;45.568;11.894;2022-09-09T07:48:46;100929.72;;;23.24;82.86
57859;BME280;49153;45.568;11.894;2022-09-09T07:51:16;100942.16;;;23.54;82.64
57859;BME280;49153;45.568;11.894;2022-09-09T07:53:44;100930.31;;;23.70;81.87
57859;BME280;49153;45.568;11.894;2022-09-09T07:56:14;100949.97;;;23.85;81.20
57859;BME280;49153;45.568;11.894;2022-09-09T07:58:42;100947.50;;;23.83;80.56
57859;BME280;49153;45.568;11.894;2022-09-09T08:01:18;100950.19;;;23.83;80.22
57859;BME280;49153;45.568;11.894;2022-09-09T08:03:45;100951.88;;;23.84;80.47
57859;BME280;49153;45.568;11.894;2022-09-09T08:06:11;100950.63;;;23.87;80.36
57859;BME280;49153;45.568;11.894;2022-09-09T08:08:37;100958.31;;;23.90;80.14
57859;BME280;49153;45.568;11.894;2022-09-09T08:11:15;100958.44;;;23.82;80.24
57859;BME280;49153;45.568;11.894;2022-09-09T08:13:42;100952.41;;;23.80;79.52
57859;BME280;49153;45.568;11.894;2022-09-09T08:16:13;100956.50;;;23.76;79.92
57859;BME280;49153;45.568;11.894;2022-09-09T08:18:39;100956.44;;;23.69;79.70
57859;BME280;49153;45.568;11.894;2022-09-09T08:21:13;100953.09;;;23.67;80.25
57859;BME280;49153;45.568;11.894;2022-09-09T08:23:40;100953.84;;;23.61;79.25
57859;BME280;49153;45.568;11.894;2022-09-09T08:26:12;100972.44;;;23.56;79.20
57859;BME280;49153;45.568;11.894;2022-09-09T08:28:38;100968.06;;;23.55;79.98
57859;BME280;49153;45.568;11.894;2022-09-09T08:31:09;100975.31;;;23.54;79.51
57859;BME280;49153;45.568;11.894;2022-09-09T08:33:35;100980.69;;;23.54;79.34
57859;BME280;49153;45.568;11.894;2022-09-09T08:36:03;100989.63;;;23.55;79.17
57859;BME280;49153;45.568;11.894;2022-09-09T08:38:29;100991.97;;;23.58;78.82
57859;BME280;49153;45.568;11.894;2022-09-09T08:41:03;100985.34;;;23.61;78.69
57859;BME280;49153;45.568;11.894;2022-09-09T08:43:33;100996.56;;;23.64;77.95
57859;BME280;49153;45.568;11.894;2022-09-09T08:46:21;100999.47;;;23.63;78.06
57859;BME280;49153;45.568;11.894;2022-09-09T08:48:56;101003.00;;;23.63;78.00
57859;BME280;49153;45.568;11.894;2022-09-09T08:51:29;100993.25;;;23.62;77.30
57859;BME280;49153;45.568;11.894;2022-09-09T08:53:58;100991.47;;;23.54;77.60
57859;BME280;49153;45.568;11.894;2022-09-09T08:56:26;100989.78;;;23.53;77.21
57859;BME280;49153;45.568;11.894;2022-09-09T08:58:54;100986.44;;;23.66;78.27
57859;BME280;49153;45.568;11.894;2022-09-09T09:01:35;100995.72;;;23.78;77.19
57859;BME280;49153;45.568;11.894;2022-09-09T09:04:17;100984.91;;;23.93;78.24
57859;BME280;49153;45.568;11.894;2022-09-09T09:12:31;100982.25;;;24.14;75.31
57859;BME280;49153;45.568;11.894;2022-09-09T09:14:59;100982.34;;;24.06;74.88
57859;BME280;49153;45.568;11.894;2022-09-09T09:17:27;100969.66;;;24.00;74.93
57859;BME280;49153;45.568;11.894;2022-09-09T09:19:53;100971.38;;;24.08;74.49
57859;BME280;49153;45.568;11.894;2022-09-09T09:22:21;100971.56;;;24.21;74.54
57859;BME280;49153;45.568;11.894;2022-09-09T09:24:54;100980.75;;;24.48;74.18
57859;BME280;49153;45.568;11.894;2022-09-09T09:27:33;100970.50;;;24.64;71.78
57859;BME280;49153;45.568;11.894;2022-09-09T09:30:05;100963.78;;;24.81;72.79
57859;BME280;49153;45.568;11.894;2022-09-09T09:32:33;100967.72;;;25.00;71.92
57859;BME280;49153;45.568;11.894;2022-09-09T09:35:02;100949.91;;;25.06;70.03
57859;BME280;49153;45.568;11.894;2022-09-09T09:37:34;100964.47;;;25.18;71.31
57859;BME280;49153;45.568;11.894;2022-09-09T09:40:15;100960.84;;;25.39;71.53
57859;BME280;49153;45.568;11.894;2022-09-09T09:42:52;100968.84;;;25.53;69.62
57859;BME280;49153;45.568;11.894;2022-09-09T09:47:46;100975.06;;;25.47;68.96
57859;BME280;49153;45.568;11.894;2022-09-09T09:50:22;100974.59;;;25.37;68.86
57859;BME280;49153;45.568;11.894;2022-09-09T09:52:55;100977.91;;;25.33;69.26
57859;BME280;49153;45.568;11.894;2022-09-09T09:55:22;100986.94;;;25.18;69.00
57859;BME280;49153;45.568;11.894;2022-09-09T09:57:49;100977.03;;;24.98;69.80
57859;BME280;49153;45.568;11.894;2022-09-09T10:00:20;100983.25;;;24.98;69.84
57859;BME280;49153;45.568;11.894;2022-09-09T10:02:47;100970.13;;;24.89;69.74
57859;BME280;49153;45.568;11.894;2022-09-09T10:05:14;100964.88;;;24.87;69.81
57859;BME280;49153;45.568;11.894;2022-09-09T10:07:40;100963.94;;;24.73;69.81
57859;BME280;49153;45.568;11.894;2022-09-09T10:10:22;100958.44;;;24.60;69.74
57859;BME280;49153;45.568;11.894;2022-09-09T10:13:04;100958.09;;;24.42;69.35
57859;BME280;49153;45.568;11.894;2022-09-09T10:18:47;100960.59;;;24.08;70.71
57859;BME280;49153;45.568;11.894;2022-09-09T10:22:02;100952.66;;;23.99;71.42
57859;BME280;49153;45.568;11.894;2022-09-09T10:24:47;100958.16;;;23.91;71.87
57859;BME280;49153;45.568;11.894;2022-09-09T10:33:40;100953.63;;;23.77;72.64
57859;BME280;49153;45.568;11.894;2022-09-09T10:36:18;100945.28;;;23.72;72.66
57859;BME280;49153;45.568;11.894;2022-09-09T10:41:12;100951.34;;;23.95;74.41
57859;BME280;49153;45.568;11.894;2022-09-09T10:43:50;100943.44;;;24.30;73.61
57859;BME280;49153;45.568;11.894;2022-09-09T10:49:56;100936.59;;;25.04;73.99
57859;BME280;49153;45.568;11.894;2022-09-09T10:55:06;100938.34;;;25.66;70.25
57859;BME280;49153;45.568;11.894;2022-09-09T11:02:41;100940.84;;;26.35;68.80
57859;BME280;49153;45.568;11.894;2022-09-09T11:12:57;100932.72;;;26.87;65.28
57859;BME280;49153;45.568;11.894;2022-09-09T11:15:46;100953.94;;;26.84;65.88
57859;BME280;49153;45.568;11.894;2022-09-09T11:18:19;100958.75;;;26.88;64.08
57859;BME280;49153;45.568;11.894;2022-09-09T11:20:46;100956.25;;;27.00;65.57
57859;BME280;49153;45.568;11.894;2022-09-09T11:26:51;100945.44;;;26.87;63.99
57859;BME280;49153;45.568;11.894;2022-09-09T11:29:38;100934.97;;;27.04;64.94
57859;BME280;49153;45.568;11.894;2022-09-09T11:40:24;100944.34;;;27.08;63.87
57859;BME280;49153;45.568;11.894;2022-09-09T11:45:31;100931.69;;;26.75;64.24
57859;BME280;49153;45.568;11.894;2022-09-09T11:48:00;100917.50;;;26.67;64.22
57859;BME280;49153;45.568;11.894;2022-09-09T11:53:04;100921.47;;;26.51;65.11
57859;BME280;49153;45.568;11.894;2022-09-09T11:55:34;100918.78;;;26.38;64.33
57859;BME280;49153;45.568;11.894;2022-09-09T11:58:06;100907.50;;;26.21;64.75
57859;BME280;49153;45.568;11.894;2022-09-09T12:00:43;100913.91;;;26.07;65.54
57859;BME280;49153;45.568;11.894;2022-09-09T12:03:42;100916.41;;;26.02;65.61
57859;BME280;49153;45.568;11.894;2022-09-09T12:06:20;100912.84;;;25.88;65.95
57859;BME280;49153;45.568;11.894;2022-09-09T12:08:55;100922.41;;;25.78;66.08
57859;BME280;49153;45.568;11.894;2022-09-09T12:11:28;100938.63;;;25.78;66.38
57859;BME280;49153;45.568;11.894;2022-09-09T12:13:58;100937.34;;;25.74;66.84
57859;BME280;49153;45.568;11.894;2022-09-09T12:16:42;100926.56;;;25.74;67.00
57859;BME280;49153;45.568;11.894;2022-09-09T12:19:18;100926.13;;;25.77;66.70
57859;BME280;49153;45.568;11.894;2022-09-09T12:22:25;100929.63;;;25.71;66.60
57859;BME280;49153;45.568;11.894;2022-09-09T12:25:16;100934.41;;;25.62;67.07
57859;BME280;49153;45.568;11.894;2022-09-09T12:30:39;100938.56;;;25.58;67.77
57859;BME280;49153;45.568;11.894;2022-09-09T12:33:11;100957.66;;;25.56;67.64
57859;BME280;49153;45.568;11.894;2022-09-09T12:35:42;100964.25;;;25.47;67.56
57859;BME280;49153;45.568;11.894;2022-09-09T12:38:13;100967.97;;;25.46;67.74
57859;BME280;49153;45.568;11.894;2022-09-09T12:40:40;100967.94;;;25.40;67.55
57859;BME280;49153;45.568;11.894;2022-09-09T12:43:20;100972.97;;;25.49;69.12
57859;BME280;49153;45.568;11.894;2022-09-09T12:45:49;100965.28;;;25.46;69.25
57859;BME280;49153;45.568;11.894;2022-09-09T12:48:18;100957.72;;;25.35;69.68
57859;BME280;49153;45.568;11.894;2022-09-09T12:50:50;100969.09;;;25.24;70.57
57859;BME280;49153;45.568;11.894;2022-09-09T12:53:24;100969.88;;;25.18;71.61
57859;BME280;49153;45.568;11.894;2022-09-09T12:56:04;100962.16;;;25.08;72.00
57859;BME280;49153;45.568;11.894;2022-09-09T12:58:32;100976.91;;;24.85;72.57
57859;BME280;49153;45.568;11.894;2022-09-09T13:00:59;100984.81;;;24.65;73.43
57859;BME280;49153;45.568;11.894;2022-09-09T13:03:25;100996.53;;;24.29;72.84
57859;BME280;49153;45.568;11.894;2022-09-09T13:05:52;100998.22;;;23.80;72.62
57859;BME280;49153;45.568;11.894;2022-09-09T13:08:19;101013.00;;;23.40;73.13
57859;BME280;49153;45.568;11.894;2022-09-09T13:11:02;101016.03;;;23.07;74.41
57859;BME280;49153;45.568;11.894;2022-09-09T13:13:34;101011.53;;;22.85;74.86
57859;BME280;49153;45.568;11.894;2022-09-09T13:16:01;100986.50;;;22.62;74.57
57859;BME280;49153;45.568;11.894;2022-09-09T13:18:39;100971.88;;;22.42;75.20
57859;BME280;49153;45.568;11.894;2022-09-09T13:21:06;100958.56;;;22.25;75.31
57859;BME280;49153;45.568;11.894;2022-09-09T13:23:36;100953.34;;;22.24;76.42
57859;BME280;49153;45.568;11.894;2022-09-09T13:26:04;100956.22;;;22.22;76.25
57859;BME280;49153;45.568;11.894;2022-09-09T13:28:31;100961.88;;;22.27;76.81
57859;BME280;49153;45.568;11.894;2022-09-09T13:31:03;100956.16;;;22.30;76.95
57859;BME280;49153;45.568;11.894;2022-09-09T13:33:32;100964.22;;;22.30;77.22
57859;BME280;49153;45.568;11.894;2022-09-09T13:36:01;100953.28;;;22.32;77.86
57859;BME280;49153;45.568;11.894;2022-09-09T13:38:33;100954.41;;;22.38;78.13
57859;BME280;49153;45.568;11.894;2022-09-09T13:41:05;100950.38;;;22.42;78.51
57859;BME280;49153;45.568;11.894;2022-09-09T13:46:05;100925.41;;;22.48;78.65
57859;BME280;49153;45.568;11.894;2022-09-09T13:48:31;100927.28;;;22.47;78.90
57859;BME280;49153;45.568;11.894;2022-09-09T13:51:04;100933.59;;;22.54;79.55
57859;BME280;49153;45.568;11.894;2022-09-09T13:53:30;100928.97;;;22.86;81.08
57859;BME280;49153;45.568;11.894;2022-09-09T13:55:57;100915.06;;;23.11;82.47
57859;BME280;49153;45.568;11.894;2022-09-09T13:58:23;100916.06;;;23.40;81.76
57859;BME280;49153;45.568;11.894;2022-09-09T14:00:51;100907.03;;;23.62;82.20
57859;BME280;49153;45.568;11.894;2022-09-09T14:03:17;100899.22;;;23.67;80.57
57859;BME280;49153;45.568;11.894;2022-09-09T14:05:44;100898.84;;;23.70;80.05
57859;BME280;49153;45.568;11.894;2022-09-09T14:08:15;100905.78;;;23.79;80.46
57859;BME280;49153;45.568;11.894;2022-09-09T14:10:41;100910.66;;;23.90;79.61
57859;BME280;49153;45.568;11.894;2022-09-09T14:13:07;100912.59;;;23.96;79.96
57859;BME280;49153;45.568;11.894;2022-09-09T14:15:33;100908.38;;;24.09;79.16
57859;BME280;49153;45.568;11.894;2022-09-09T14:17:58;100906.56;;;24.16;77.66
57859;BME280;49153;45.568;11.894;2022-09-09T14:20:24;100910.56;;;24.20;77.25
57859;BME280;49153;45.568;11.894;2022-09-09T14:22:49;100901.72;;;24.26;76.83
57859;BME280;49153;45.568;11.894;2022-09-09T14:25:15;100904.84;;;24.29;75.83
57859;BME280;49153;45.568;11.894;2022-09-09T14:27:41;100912.00;;;24.44;76.05
57859;BME280;49153;45.568;11.894;2022-09-09T14:30:08;100910.06;;;24.59;76.89
57859;BME280;49153;45.568;11.894;2022-09-09T14:32:33;100918.06;;;24.73;77.05
57859;BME280;49153;45.568;11.894;2022-09-09T14:34:59;100909.72;;;24.90;75.02
57859;BME280;49153;45.568;11.894;2022-09-09T14:37:24;100912.13;;;24.85;73.81